Time,TemperatureF,DewpointF,PressureIn,WindDirection,WindDirectionDegrees,WindSpeedMPH,WindSpeedGustMPH,Humidity,HourlyPrecipIn,Conditions,Clouds,dailyrainin,SoftwareType,DateUTC
2013-11-11 00:12:00,19.0,2.0,30.35,North,355,9.0,15.0,47,0.00,,,0.00,,2013-11-11 06:12:00,
2013-11-11 00:22:00,19.0,3.0,30.35,North,355,7.0,14.0,48,0.00,,,0.00,,2013-11-11 06:22:00,
2013-11-11 00:42:00,19.0,0.0,30.36,North,5,9.0,14.0,43,0.00,,,0.00,,2013-11-11 06:42:00,
2013-11-11 00:52:00,18.0,0.0,30.36,NNW,347,6.0,13.0,45,0.00,,,0.00,,2013-11-11 06:52:00,
2013-11-11 01:12:00,18.0,0.0,30.37,North,355,7.0,12.0,44,0.00,,,0.00,,2013-11-11 07:12:00,
2013-11-11 01:22:00,18.0,1.0,30.38,NNW,345,9.0,15.0,46,0.00,,,0.00,,2013-11-11 07:22:00,
2013-11-11 01:42:00,18.0,3.0,30.38,NNW,333,8.0,12.0,50,0.00,,,0.00,,2013-11-11 07:42:00,
2013-11-11 01:52:00,17.0,2.0,30.38,NNE,13,9.0,15.0,51,0.00,,,0.00,,2013-11-11 07:52:00,
2013-11-11 02:22:00,16.0,2.0,30.40,North,360,10.0,17.0,53,0.00,,,0.00,,2013-11-11 08:22:00,
2013-11-11 02:42:00,16.0,3.0,30.40,NNW,341,10.0,17.0,56,0.00,,,0.00,,2013-11-11 08:42:00,
2013-11-11 02:52:00,15.0,3.0,30.41,North,355,10.0,14.0,58,0.00,,,0.00,,2013-11-11 08:52:00,
2013-11-11 03:11:00,15.0,4.0,30.41,North,360,10.0,17.0,60,0.00,,,0.00,,2013-11-11 09:11:00,
2013-11-11 03:22:00,14.0,3.0,30.42,NNW,331,6.0,17.0,62,0.00,,,0.00,,2013-11-11 09:22:00,
2013-11-11 03:43:00,14.0,3.0,30.42,NNW,348,10.0,15.0,61,0.00,,,0.00,,2013-11-11 09:43:00,
2013-11-11 03:54:00,14.0,3.0,30.43,North,355,8.0,13.0,62,0.00,,,0.00,,2013-11-11 09:54:00,
2013-11-11 04:23:00,13.0,4.0,30.44,North,350,7.0,12.0,67,0.00,,,0.00,,2013-11-11 10:23:00,
2013-11-11 04:42:00,12.0,4.0,30.45,North,5,8.0,14.0,68,0.00,,,0.00,,2013-11-11 10:42:00,
2013-11-11 04:52:00,11.0,3.0,30.46,NNW,346,6.0,13.0,68,0.00,,,0.00,,2013-11-11 10:52:00,
2013-11-11 05:12:00,11.0,3.0,30.47,NNW,346,5.0,11.0,69,0.00,,,0.00,,2013-11-11 11:12:00,
2013-11-11 05:21:00,11.0,3.0,30.47,NNW,346,5.0,8.0,71,0.00,,,0.00,,2013-11-11 11:21:00,
2013-11-11 05:42:00,10.0,3.0,30.48,North,360,7.0,12.0,71,0.00,,,0.00,,2013-11-11 11:42:00,
2013-11-11 05:52:00,10.0,3.0,30.49,NNW,342,5.0,10.0,73,0.00,,,0.00,,2013-11-11 11:52:00,
2013-11-11 06:12:00,9.0,3.0,30.49,North,350,5.0,8.0,75,0.00,,,0.00,,2013-11-11 12:12:00,
2013-11-11 06:22:00,9.0,3.0,30.50,North,350,3.0,5.0,76,0.00,,,0.00,,2013-11-11 12:22:00,
2013-11-11 06:42:00,9.0,3.0,30.51,NNW,336,4.0,6.0,77,0.00,,,0.00,,2013-11-11 12:42:00,
2013-11-11 06:52:00,8.0,3.0,30.52,NNW,342,4.0,8.0,78,0.00,,,0.00,,2013-11-11 12:52:00,
2013-11-11 07:11:00,8.0,3.0,30.52,NNW,341,3.0,8.0,79,0.00,,,0.00,,2013-11-11 13:11:00,
2013-11-11 07:21:00,8.0,3.0,30.53,NNW,333,4.0,7.0,79,0.00,,,0.00,,2013-11-11 13:21:00,
2013-11-11 07:42:00,7.0,2.0,30.53,NNW,333,4.0,8.0,79,0.00,,,0.00,,2013-11-11 13:42:00,
2013-11-11 07:52:00,7.0,2.0,30.54,NNW,333,2.0,4.0,80,0.00,,,0.00,,2013-11-11 13:52:00,
2013-11-11 08:21:00,6.0,1.0,30.55,NNW,329,4.0,7.0,81,0.00,,,0.00,,2013-11-11 14:21:00,
2013-11-11 08:42:00,6.0,2.0,30.57,NW,316,5.0,8.0,82,0.00,,,0.00,,2013-11-11 14:42:00,
2013-11-11 08:52:00,6.0,1.0,30.57,NW,325,8.0,11.0,81,0.00,,,0.00,,2013-11-11 14:52:00,
2013-11-11 09:11:00,7.0,2.0,30.58,NNW,327,7.0,11.0,81,0.00,,,0.00,,2013-11-11 15:11:00,
2013-11-11 09:21:00,7.0,2.0,30.59,North,350,6.0,10.0,81,0.00,,,0.00,,2013-11-11 15:21:00,
2013-11-11 09:43:00,8.0,3.0,30.59,North,350,6.0,9.0,80,0.00,,,0.00,,2013-11-11 15:43:00,
2013-11-11 09:53:00,9.0,4.0,30.60,NW,320,6.0,10.0,78,0.00,,,0.00,,2013-11-11 15:53:00,
2013-11-11 10:23:00,10.0,3.0,30.60,NW,321,4.0,9.0,73,0.00,,,0.00,,2013-11-11 16:23:00,
2013-11-11 10:42:00,11.0,3.0,30.61,North,355,4.0,8.0,69,0.00,,,0.00,,2013-11-11 16:42:00,
2013-11-11 10:53:00,12.0,4.0,30.61,NNW,332,6.0,10.0,68,0.00,,,0.00,,2013-11-11 16:53:00,
2013-11-11 11:12:00,13.0,3.0,30.61,NW,304,5.0,8.0,65,0.00,,,0.00,,2013-11-11 17:12:00,
2013-11-11 11:22:00,13.0,2.0,30.61,NNW,340,3.0,8.0,61,0.00,,,0.00,,2013-11-11 17:22:00,
2013-11-11 11:42:00,14.0,2.0,30.62,North,5,5.0,8.0,58,0.00,,,0.00,,2013-11-11 17:42:00,
2013-11-11 11:52:00,15.0,3.0,30.62,NNW,333,5.0,9.0,58,0.00,,,0.00,,2013-11-11 17:52:00,
2013-11-11 12:13:00,16.0,2.0,30.62,WSW,242,5.0,10.0,54,0.00,,,0.00,,2013-11-11 18:13:00,
2013-11-11 12:23:00,16.0,2.0,30.62,WNW,303,7.0,9.0,53,0.00,,,0.00,,2013-11-11 18:23:00,
2013-11-11 12:42:00,17.0,2.0,30.61,NW,316,8.0,13.0,52,0.00,,,0.00,,2013-11-11 18:42:00,
2013-11-11 12:52:00,17.0,2.0,30.61,NW,315,4.0,10.0,51,0.00,,,0.00,,2013-11-11 18:52:00,
2013-11-11 13:12:00,18.0,2.0,30.61,NNW,329,5.0,8.0,48,0.00,,,0.00,,2013-11-11 19:12:00,
2013-11-11 13:22:00,19.0,2.0,30.61,NNW,331,7.0,9.0,46,0.00,,,0.00,,2013-11-11 19:22:00,
2013-11-11 13:42:00,19.0,1.0,30.61,WNW,292,2.0,8.0,45,0.00,,,0.00,,2013-11-11 19:42:00,
2013-11-11 13:53:00,19.0,1.0,30.61,NNW,347,4.0,8.0,44,0.00,,,0.00,,2013-11-11 19:53:00,
2013-11-11 14:11:00,20.0,1.0,30.62,NNW,340,4.0,7.0,42,0.00,,,0.00,,2013-11-11 20:11:00,
2013-11-11 14:22:00,21.0,2.0,30.61,NW,310,3.0,9.0,42,0.00,,,0.00,,2013-11-11 20:22:00,
2013-11-11 14:42:00,21.0,2.0,30.62,WNW,298,3.0,10.0,42,0.00,,,0.00,,2013-11-11 20:42:00,
2013-11-11 14:52:00,21.0,2.0,30.61,NNW,347,2.0,6.0,42,0.00,,,0.00,,2013-11-11 20:52:00,
2013-11-11 15:12:00,22.0,2.0,30.61,NW,318,1.0,8.0,41,0.00,,,0.00,,2013-11-11 21:12:00,
2013-11-11 15:22:00,22.0,1.0,30.61,NNW,327,6.0,11.0,39,0.00,,,0.00,,2013-11-11 21:22:00,
2013-11-11 15:43:00,22.0,0.0,30.62,WNW,297,5.0,9.0,38,0.00,,,0.00,,2013-11-11 21:43:00,
2013-11-11 15:55:00,22.0,1.0,30.61,WNW,290,4.0,7.0,40,0.00,,,0.00,,2013-11-11 21:55:00,
2013-11-11 16:14:00,22.0,0.0,30.61,West,279,3.0,8.0,38,0.00,,,0.00,,2013-11-11 22:14:00,
2013-11-11 16:24:00,22.0,0.0,30.61,NW,311,2.0,6.0,37,0.00,,,0.00,,2013-11-11 22:24:00,
2013-11-11 16:43:00,22.0,-1.0,30.61,NW,311,3.0,5.0,36,0.00,,,0.00,,2013-11-11 22:43:00,
2013-11-11 16:53:00,22.0,0.0,30.61,NW,312,0.0,4.0,37,0.00,,,0.00,,2013-11-11 22:53:00,
2013-11-11 17:13:00,22.0,0.0,30.63,NW,312,0.0,2.0,37,0.00,,,0.00,,2013-11-11 23:13:00,
2013-11-11 17:22:00,22.0,0.0,30.63,NW,312,0.0,1.0,37,0.00,,,0.00,,2013-11-11 23:22:00,
2013-11-11 17:42:00,21.0,0.0,30.63,NW,312,0.0,0.0,39,0.00,,,0.00,,2013-11-11 23:42:00,
2013-11-11 17:53:00,20.0,0.0,30.63,NW,312,0.0,0.0,40,0.00,,,0.00,,2013-11-11 23:53:00,
2013-11-11 18:11:00,19.0,1.0,30.63,NW,312,0.0,0.0,44,0.00,,,0.00,,2013-11-12 00:11:00,
2013-11-11 18:22:00,17.0,-2.0,30.63,NW,312,0.0,0.0,43,0.00,,,0.00,,2013-11-12 00:22:00,
2013-11-11 18:42:00,16.0,-1.0,30.63,NW,312,0.0,0.0,47,0.00,,,0.00,,2013-11-12 00:42:00,
2013-11-11 19:42:00,14.0,3.0,30.65,NW,312,0.0,0.0,61,0.00,,,0.00,,2013-11-12 01:42:00,
2013-11-11 19:52:00,13.0,2.0,30.65,NW,312,0.0,0.0,61,0.00,,,0.00,,2013-11-12 01:52:00,
2013-11-11 20:22:00,11.0,0.0,30.65,NW,312,0.0,0.0,60,0.00,,,0.00,,2013-11-12 02:22:00,
2013-11-11 20:42:00,10.0,2.0,30.65,NW,312,0.0,1.0,68,0.00,,,0.00,,2013-11-12 02:42:00,
2013-11-11 20:52:00,10.0,2.0,30.65,NW,312,0.0,0.0,70,0.00,,,0.00,,2013-11-12 02:52:00,
2013-11-11 21:11:00,9.0,1.0,30.64,NW,312,0.0,0.0,69,0.00,,,0.00,,2013-11-12 03:11:00,
2013-11-11 21:22:00,9.0,2.0,30.64,NW,312,0.0,0.0,71,0.00,,,0.00,,2013-11-12 03:22:00,
2013-11-11 21:45:00,8.0,1.0,30.65,NW,312,0.0,0.0,72,0.00,,,0.00,,2013-11-12 03:45:00,
2013-11-11 21:54:00,8.0,1.0,30.65,NW,312,0.0,0.0,74,0.00,,,0.00,,2013-11-12 03:54:00,
2013-11-11 22:14:00,8.0,2.0,30.65,NW,312,0.0,0.0,75,0.00,,,0.00,,2013-11-12 04:14:00,
2013-11-11 22:24:00,8.0,2.0,30.65,NW,312,0.0,0.0,76,0.00,,,0.00,,2013-11-12 04:24:00,
2013-11-11 22:43:00,8.0,2.0,30.65,NW,312,0.0,0.0,75,0.00,,,0.00,,2013-11-12 04:43:00,
2013-11-11 22:53:00,9.0,3.0,30.65,NW,312,1.0,2.0,75,0.00,,,0.00,,2013-11-12 04:53:00,
2013-11-11 23:13:00,9.0,3.0,30.64,NW,312,0.0,1.0,75,0.00,,,0.00,,2013-11-12 05:13:00,
2013-11-11 23:23:00,9.0,3.0,30.64,NW,312,0.0,1.0,76,0.00,,,0.00,,2013-11-12 05:23:00,
2013-11-11 23:43:00,9.0,3.0,30.65,NW,312,0.0,1.0,76,0.00,,,0.00,,2013-11-12 05:43:00,
2013-11-11 23:54:00,9.0,3.0,30.64,NW,312,0.0,0.0,76,0.00,,,0.00,,2013-11-12 05:54:00,